createdAt,value
2022-11-06T00:00:49.981Z,97420.06
2022-11-06T00:03:18.569Z,97421.15
2022-11-06T00:06:05.429Z,97424.98
2022-11-06T00:08:36.742Z,97425.31
2022-11-06T00:11:13.953Z,97427.75
2022-11-06T00:13:43.053Z,97432.06
2022-11-06T00:16:12.882Z,97432.55
2022-11-06T00:18:42.043Z,97428.67
2022-11-06T00:21:20.827Z,97427.56
2022-11-06T00:23:49.916Z,97424.35
2022-11-06T00:26:21.014Z,97420.13
2022-11-06T00:28:50.536Z,97422.36
2022-11-06T00:31:21.868Z,97424.45
2022-11-06T00:33:51.248Z,97429.16
2022-11-06T00:36:21.406Z,97424.85
2022-11-06T00:38:54.220Z,97433.05
2022-11-06T00:41:23.830Z,97435.20
2022-11-06T00:44:02.696Z,97434.21
2022-11-06T00:46:31.156Z,97433.46
2022-11-06T00:48:59.699Z,97436.55
2022-11-06T00:51:31.099Z,97440.13
2022-11-06T00:54:02.656Z,97436.70
2022-11-06T00:56:32.639Z,97437.83
2022-11-06T00:59:02.650Z,97436.38
2022-11-06T01:01:37.581Z,97436.08
2022-11-06T01:04:11.063Z,97435.65
2022-11-06T01:06:42.707Z,97434.69
2022-11-06T01:09:17.070Z,97436.95
2022-11-06T01:14:40.109Z,97439.71
2022-11-06T01:17:08.723Z,97440.71
2022-11-06T01:19:37.492Z,97443.84
2022-11-06T01:22:05.790Z,97442.45
2022-11-06T01:24:35.324Z,97440.22
2022-11-06T01:29:52.075Z,97434.87
2022-11-06T01:32:21.143Z,97434.41
2022-11-06T01:34:50.919Z,97434.13
2022-11-06T01:37:19.642Z,97436.79
2022-11-06T01:39:50.974Z,97435.98
2022-11-06T01:42:21.915Z,97437.45
2022-11-06T01:45:19.045Z,97439.43
2022-11-06T01:47:47.565Z,97440.05
2022-11-06T01:50:17.659Z,97444.48
2022-11-06T01:52:50.108Z,97441.43
2022-11-06T01:55:24.352Z,97439.05
2022-11-06T01:57:54.231Z,97442.02
2022-11-06T02:00:22.350Z,97450.20
2022-11-06T02:02:51.372Z,97454.74
2022-11-06T02:05:19.870Z,97463.61
2022-11-06T02:07:48.557Z,97473.00
2022-11-06T02:10:16.942Z,97475.61
2022-11-06T02:12:45.366Z,97475.58
2022-11-06T02:15:32.689Z,97475.04
2022-11-06T02:18:48.780Z,97476.94
2022-11-06T02:21:48.806Z,97480.91
2022-11-06T02:24:30.958Z,97481.06
2022-11-06T02:27:10.731Z,97484.39
2022-11-06T02:29:47.940Z,97487.38
2022-11-06T02:32:22.770Z,97489.98
2022-11-06T02:34:53.971Z,97490.02
2022-11-06T02:37:30.339Z,97494.16
2022-11-06T02:40:02.072Z,97495.03
2022-11-06T02:42:32.118Z,97496.06
2022-11-06T02:45:02.571Z,97496.41
2022-11-06T02:47:34.169Z,97495.77
2022-11-06T02:50:16.469Z,97499.81
2022-11-06T02:52:57.489Z,97499.66
2022-11-06T02:55:34.441Z,97500.40
2022-11-06T02:58:09.731Z,97502.55
2022-11-06T03:00:40.988Z,97504.86
2022-11-06T03:03:26.685Z,97506.83
2022-11-06T03:06:18.363Z,97511.20
2022-11-06T03:08:58.199Z,97516.97
2022-11-06T03:11:36.018Z,97518.54
2022-11-06T03:14:28.867Z,97516.98
2022-11-06T03:17:01.536Z,97515.94
2022-11-06T03:19:29.606Z,97516.63
2022-11-06T03:22:03.763Z,97519.92
2022-11-06T03:24:41.308Z,97521.69
2022-11-06T03:27:17.420Z,97524.47
2022-11-06T03:29:54.902Z,97520.00
2022-11-06T03:32:35.935Z,97520.53
2022-11-06T03:35:15.483Z,97520.55
2022-11-06T03:37:52.022Z,97520.55
2022-11-06T03:40:23.770Z,97522.78
2022-11-06T03:42:56.505Z,97524.52
2022-11-06T03:45:27.794Z,97525.20
2022-11-06T03:48:02.760Z,97527.13
2022-11-06T03:50:41.195Z,97529.78
2022-11-06T03:53:15.709Z,97528.59
2022-11-06T03:56:05.641Z,97527.91
2022-11-06T03:58:38.815Z,97534.54
2022-11-06T04:01:11.167Z,97536.98
2022-11-06T04:03:45.678Z,97541.16
2022-11-06T04:06:23.922Z,97539.46
2022-11-06T04:09:15.543Z,97534.29
2022-11-06T04:12:03.981Z,97536.40
2022-11-06T04:14:34.638Z,97539.02
2022-11-06T04:17:07.932Z,97541.81
2022-11-06T04:19:36.300Z,97544.23
2022-11-06T04:22:59.134Z,97543.38
2022-11-06T04:25:58.694Z,97542.67
2022-11-06T04:29:03.168Z,97543.52
2022-11-06T04:31:41.106Z,97545.41
2022-11-06T04:34:21.473Z,97547.48
2022-11-06T04:37:02.151Z,97548.35
2022-11-06T04:39:44.860Z,97548.88
2022-11-06T04:42:41.093Z,97552.70
2022-11-06T04:45:27.067Z,97550.80
2022-11-06T04:47:56.484Z,97557.57
2022-11-06T04:50:28.723Z,97557.23
2022-11-06T04:52:58.415Z,97555.19
2022-11-06T04:55:30.592Z,97553.47
2022-11-06T04:57:59.672Z,97556.09
2022-11-06T05:00:29.192Z,97555.42
2022-11-06T05:02:59.011Z,97554.23
2022-11-06T05:05:27.753Z,97557.20
2022-11-06T05:07:56.956Z,97559.98
2022-11-06T05:10:25.152Z,97561.55
2022-11-06T05:12:53.347Z,97565.55
2022-11-06T05:15:22.478Z,97569.90
2022-11-06T05:17:51.692Z,97575.09
2022-11-06T05:20:20.321Z,97580.48
2022-11-06T05:23:01.063Z,97586.89
2022-11-06T05:25:35.342Z,97586.88
2022-11-06T05:28:07.243Z,97589.31
2022-11-06T05:30:37.452Z,97587.05
2022-11-06T05:33:06.059Z,97593.98
2022-11-06T05:35:34.718Z,97594.50
2022-11-06T05:38:04.177Z,97599.70
2022-11-06T05:40:33.308Z,97603.34
2022-11-06T05:43:01.992Z,97606.13
2022-11-06T05:45:30.479Z,97608.56
2022-11-06T05:47:58.699Z,97614.11
2022-11-06T05:50:27.290Z,97617.92
2022-11-06T05:52:56.136Z,97623.65
2022-11-06T05:55:24.921Z,97627.45
2022-11-06T05:57:53.256Z,97629.85
2022-11-06T06:00:21.987Z,97629.99
2022-11-06T06:02:50.845Z,97635.38
2022-11-06T06:05:19.244Z,97635.19
2022-11-06T06:07:48.039Z,97636.40
2022-11-06T06:10:16.774Z,97630.30
2022-11-06T06:12:45.011Z,97631.64
2022-11-06T06:15:15.388Z,97633.84
2022-11-06T06:17:43.684Z,97641.42
2022-11-06T06:20:12.357Z,97646.56
2022-11-06T06:22:40.995Z,97647.20
2022-11-06T06:25:19.534Z,97646.65
2022-11-06T06:27:51.748Z,97649.75
2022-11-06T06:30:21.943Z,97644.50
2022-11-06T06:32:51.178Z,97642.75
2022-11-06T06:35:19.536Z,97647.25
2022-11-06T06:37:54.077Z,97650.02
2022-11-06T06:40:23.483Z,97652.41
2022-11-06T06:42:51.753Z,97655.19
2022-11-06T06:45:20.023Z,97653.23
2022-11-06T06:47:48.120Z,97653.90
2022-11-06T06:50:16.371Z,97662.73
2022-11-06T06:52:44.503Z,97668.08
2022-11-06T06:55:13.063Z,97669.18
2022-11-06T06:57:41.243Z,97670.11
2022-11-06T07:00:10.202Z,97667.16
2022-11-06T07:02:38.440Z,97662.81
2022-11-06T07:05:06.803Z,97660.40
2022-11-06T07:07:34.887Z,97662.23
2022-11-06T07:10:04.648Z,97660.77
2022-11-06T07:12:32.946Z,97662.06
2022-11-06T07:15:01.472Z,97665.72
2022-11-06T07:17:29.618Z,97668.04
2022-11-06T07:19:58.023Z,97663.59
2022-11-06T07:22:36.728Z,97660.08
2022-11-06T07:25:06.585Z,97660.05
2022-11-06T07:27:35.037Z,97661.77
2022-11-06T07:30:04.413Z,97667.20
2022-11-06T07:32:33.210Z,97664.71
2022-11-06T07:35:01.245Z,97664.98
2022-11-06T07:37:29.796Z,97664.88
2022-11-06T07:39:57.791Z,97663.53
2022-11-06T07:42:25.621Z,97662.02
2022-11-06T07:44:59.100Z,97659.45
2022-11-06T07:47:28.015Z,97659.09
2022-11-06T07:49:56.330Z,97656.11
2022-11-06T07:52:24.613Z,97654.66
2022-11-06T07:54:52.622Z,97654.44
2022-11-06T07:57:20.963Z,97654.77
2022-11-06T07:59:49.876Z,97648.21
2022-11-06T08:02:18.615Z,97646.47
2022-11-06T08:04:46.981Z,97647.49
2022-11-06T08:07:15.512Z,97649.52
2022-11-06T08:09:43.845Z,97652.34
2022-11-06T08:12:14.707Z,97653.26
2022-11-06T08:14:42.975Z,97645.32
2022-11-06T08:17:10.961Z,97646.86
2022-11-06T08:19:39.566Z,97649.98
2022-11-06T08:22:09.199Z,97652.20
2022-11-06T08:24:37.262Z,97649.28
2022-11-06T08:27:05.395Z,97650.45
2022-11-06T08:29:38.269Z,97653.17
2022-11-06T08:32:09.108Z,97652.92
2022-11-06T08:34:37.305Z,97653.70
2022-11-06T08:37:05.604Z,97652.60
2022-11-06T08:39:33.612Z,97651.12
2022-11-06T08:42:02.083Z,97648.21
2022-11-06T08:44:30.312Z,97644.58
2022-11-06T08:46:58.483Z,97645.89
2022-11-06T08:49:27.241Z,97644.13
2022-11-06T08:51:55.614Z,97643.46
2022-11-06T08:54:23.712Z,97640.30
2022-11-06T08:56:51.706Z,97637.67
2022-11-06T08:59:19.772Z,97637.73
2022-11-06T09:01:48.026Z,97640.55
2022-11-06T09:04:16.566Z,97637.89
2022-11-06T09:06:45.375Z,97636.71
2022-11-06T09:09:15.231Z,97639.40
2022-11-06T09:11:43.360Z,97639.86
2022-11-06T09:14:11.501Z,97635.58
2022-11-06T09:16:39.757Z,97637.52
2022-11-06T09:19:07.915Z,97634.60
2022-11-06T09:21:36.351Z,97634.38
2022-11-06T09:24:05.380Z,97628.05
2022-11-06T09:26:33.514Z,97626.80
2022-11-06T09:29:01.878Z,97623.03
2022-11-06T09:31:30.260Z,97615.44
2022-11-06T09:33:58.583Z,97615.90
2022-11-06T09:36:27.034Z,97617.14
2022-11-06T09:38:55.604Z,97618.27
2022-11-06T09:41:28.992Z,97616.92
2022-11-06T09:44:29.395Z,97613.91
2022-11-06T09:47:00.377Z,97605.36
2022-11-06T09:49:46.228Z,97601.70
2022-11-06T09:52:26.315Z,97599.66
2022-11-06T09:55:26.688Z,97595.04
2022-11-06T09:57:57.150Z,97591.58
2022-11-06T10:00:26.009Z,97591.02
2022-11-06T10:03:07.191Z,97593.80
2022-11-06T10:05:38.366Z,97592.66
2022-11-06T10:08:19.020Z,97592.52
2022-11-06T10:11:00.793Z,97591.35
2022-11-06T10:13:29.377Z,97588.39
2022-11-06T10:16:06.515Z,97585.02
2022-11-06T10:18:38.518Z,97579.13
2022-11-06T10:21:19.801Z,97577.48
2022-11-06T10:23:59.457Z,97579.27
2022-11-06T10:26:45.136Z,97574.01
2022-11-06T10:29:31.931Z,97573.45
2022-11-06T10:32:03.180Z,97568.13
2022-11-06T10:34:37.810Z,97562.88
2022-11-06T10:37:26.751Z,97559.23
2022-11-06T10:39:58.392Z,97556.59
2022-11-06T10:42:38.264Z,97552.95
2022-11-06T10:45:14.881Z,97554.82
2022-11-06T10:48:06.048Z,97550.39
2022-11-06T10:50:57.859Z,97543.44
2022-11-06T10:53:57.121Z,97540.41
2022-11-06T10:56:42.326Z,97542.36
2022-11-06T10:59:10.775Z,97540.73
2022-11-06T11:01:39.359Z,97534.88
2022-11-06T11:04:07.768Z,97532.64
2022-11-06T11:06:40.315Z,97533.24
2022-11-06T11:09:29.195Z,97531.68
2022-11-06T11:11:59.677Z,97531.60
2022-11-06T11:14:30.497Z,97526.73
2022-11-06T11:17:08.158Z,97532.69
2022-11-06T11:19:38.384Z,97530.27
2022-11-06T11:22:20.112Z,97531.10
2022-11-06T11:25:03.014Z,97528.61
2022-11-06T11:27:44.520Z,97526.58
2022-11-06T11:30:26.862Z,97526.55
2022-11-06T11:32:56.448Z,97522.86
2022-11-06T11:35:29.552Z,97523.23
2022-11-06T11:38:13.587Z,97522.05
2022-11-06T11:40:42.043Z,97519.95
2022-11-06T11:43:20.193Z,97524.13
2022-11-06T11:46:04.472Z,97524.54
2022-11-06T11:48:58.010Z,97524.16
2022-11-06T11:51:26.119Z,97522.52
2022-11-06T11:54:14.788Z,97522.20
2022-11-06T11:57:05.255Z,97520.77
2022-11-06T11:59:57.157Z,97522.48
2022-11-06T12:02:29.752Z,97523.83
2022-11-06T12:05:02.678Z,97524.31
2022-11-06T12:07:44.897Z,97524.80
2022-11-06T12:10:27.352Z,97522.00
2022-11-06T12:12:58.003Z,97520.85
2022-11-06T12:15:48.665Z,97519.86
2022-11-06T12:18:27.460Z,97522.41
2022-11-06T12:21:14.778Z,97521.73
2022-11-06T12:23:56.918Z,97520.35
2022-11-06T12:26:52.227Z,97522.91
2022-11-06T12:29:27.769Z,97521.58
2022-11-06T12:32:10.150Z,97519.45
2022-11-06T12:34:46.045Z,97518.41
2022-11-06T12:37:42.461Z,97518.88
2022-11-06T12:40:25.094Z,97518.86
2022-11-06T12:43:16.278Z,97515.38
2022-11-06T12:46:19.033Z,97512.23
2022-11-06T12:48:53.189Z,97512.08
2022-11-06T12:51:47.765Z,97512.97
2022-11-06T12:54:35.690Z,97518.02
2022-11-06T12:57:42.114Z,97515.55
2022-11-06T13:00:13.872Z,97519.75
2022-11-06T13:02:53.459Z,97516.52
2022-11-06T13:05:46.204Z,97517.08
2022-11-06T13:08:32.693Z,97516.05
2022-11-06T13:11:27.755Z,97517.99
2022-11-06T13:14:32.391Z,97517.31
2022-11-06T13:17:22.473Z,97518.95
2022-11-06T13:20:11.408Z,97518.61
2022-11-06T13:22:59.084Z,97524.11
2022-11-06T13:25:39.819Z,97521.91
2022-11-06T13:28:31.239Z,97524.66
2022-11-06T13:31:03.837Z,97525.73
2022-11-06T13:33:47.163Z,97529.96
2022-11-06T13:36:17.157Z,97529.84
2022-11-06T13:38:55.375Z,97536.03
2022-11-06T13:41:32.079Z,97540.02
2022-11-06T13:44:05.842Z,97542.30
2022-11-06T13:46:48.384Z,97538.89
2022-11-06T13:49:22.815Z,97540.90
2022-11-06T13:52:09.825Z,97540.08
2022-11-06T13:55:00.853Z,97538.77
2022-11-06T13:58:04.752Z,97540.06
2022-11-06T14:01:11.218Z,97541.92
2022-11-06T14:04:30.588Z,97542.60
2022-11-06T14:07:01.837Z,97541.89
2022-11-06T14:09:34.234Z,97541.30
2022-11-06T14:12:12.523Z,97542.98
2022-11-06T14:14:43.604Z,97546.16
2022-11-06T14:17:17.880Z,97548.25
2022-11-06T14:19:50.211Z,97548.51
2022-11-06T14:22:36.439Z,97546.20
2022-11-06T14:25:29.715Z,97546.73
2022-11-06T14:27:57.946Z,97545.87
2022-11-06T14:31:05.597Z,97547.91
2022-11-06T14:33:43.299Z,97551.16
2022-11-06T14:36:26.115Z,97551.90
2022-11-06T14:38:54.730Z,97550.29
2022-11-06T14:41:34.976Z,97554.25
2022-11-06T14:44:22.319Z,97554.74
2022-11-06T14:47:03.035Z,97556.16
2022-11-06T14:49:34.345Z,97555.96
2022-11-06T14:52:09.696Z,97557.42
2022-11-06T14:54:40.984Z,97558.89
2022-11-06T14:57:16.255Z,97561.36
2022-11-06T14:59:45.413Z,97562.42
2022-11-06T15:02:25.337Z,97565.94
2022-11-06T15:05:00.806Z,97570.73
2022-11-06T15:08:04.859Z,97571.01
2022-11-06T15:10:43.000Z,97571.61
2022-11-06T15:13:18.044Z,97568.23
2022-11-06T15:15:50.794Z,97568.31
2022-11-06T15:18:25.375Z,97570.16
2022-11-06T15:21:08.184Z,97575.75
2022-11-06T15:23:53.963Z,97575.80
2022-11-06T15:26:25.694Z,97577.30
2022-11-06T15:29:17.051Z,97581.77
2022-11-06T15:31:49.524Z,97583.92
2022-11-06T15:34:36.797Z,97586.31
2022-11-06T15:37:16.587Z,97590.16
2022-11-06T15:40:00.654Z,97593.63
2022-11-06T15:42:34.326Z,97597.98
2022-11-06T15:45:15.756Z,97598.13
2022-11-06T15:48:05.863Z,97599.43
2022-11-06T15:50:36.399Z,97602.16
2022-11-06T15:53:14.854Z,97604.73
2022-11-06T15:55:48.533Z,97603.45
2022-11-06T15:58:17.792Z,97603.77
2022-11-06T16:00:46.425Z,97604.08
2022-11-06T16:03:21.237Z,97608.07
2022-11-06T16:05:50.513Z,97610.86
2022-11-06T16:08:22.499Z,97613.66
2022-11-06T16:10:52.166Z,97613.87
2022-11-06T16:13:25.245Z,97618.98
2022-11-06T16:15:57.565Z,97621.59
2022-11-06T16:18:25.957Z,97623.12
2022-11-06T16:21:13.793Z,97623.77
2022-11-06T16:23:49.052Z,97624.89
2022-11-06T16:26:23.579Z,97628.06
2022-11-06T16:28:55.118Z,97630.73
2022-11-06T16:31:26.752Z,97632.77
2022-11-06T16:33:58.096Z,97635.98
2022-11-06T16:36:29.027Z,97640.94
2022-11-06T16:39:35.314Z,97646.72
2022-11-06T16:42:22.998Z,97653.17
2022-11-06T16:45:01.095Z,97653.00
2022-11-06T16:47:31.835Z,97654.77
2022-11-06T16:50:02.303Z,97658.48
2022-11-06T16:52:33.352Z,97657.87
2022-11-06T16:55:10.255Z,97659.23
2022-11-06T16:57:46.635Z,97664.55
2022-11-06T17:00:20.930Z,97665.78
2022-11-06T17:02:49.132Z,97668.60
2022-11-06T17:05:26.437Z,97669.36
2022-11-06T17:08:18.718Z,97676.08
2022-11-06T17:10:48.271Z,97676.10
2022-11-06T17:13:25.508Z,97676.40
2022-11-06T17:15:59.528Z,97680.40
2022-11-06T17:18:32.974Z,97684.55
2022-11-06T17:21:04.680Z,97690.90
2022-11-06T17:23:33.892Z,97696.52
2022-11-06T17:26:16.155Z,97697.26
2022-11-06T17:28:44.531Z,97700.61
2022-11-06T17:31:16.667Z,97696.23
2022-11-06T17:33:45.316Z,97703.73
2022-11-06T17:36:28.149Z,97707.91
2022-11-06T17:38:58.141Z,97712.13
2022-11-06T17:41:32.806Z,97712.21
2022-11-06T17:44:04.065Z,97714.92
2022-11-06T17:46:38.105Z,97713.27
2022-11-06T17:49:06.543Z,97713.55
2022-11-06T17:51:53.777Z,97716.67
2022-11-06T17:54:27.768Z,97716.13
2022-11-06T17:56:58.077Z,97716.77
2022-11-06T17:59:26.509Z,97715.84
2022-11-06T18:01:55.688Z,97718.74
2022-11-06T18:04:26.705Z,97717.10
2022-11-06T18:06:55.371Z,97719.44
2022-11-06T18:09:24.437Z,97719.31
2022-11-06T18:11:54.715Z,97717.11
2022-11-06T18:14:25.221Z,97718.92
2022-11-06T18:16:54.048Z,97713.59
2022-11-06T18:19:24.251Z,97712.97
2022-11-06T18:21:53.513Z,97713.08
2022-11-06T18:24:22.084Z,97716.17
2022-11-06T18:26:50.947Z,97722.20
2022-11-06T18:29:19.708Z,97726.66
2022-11-06T18:31:47.870Z,97727.14
2022-11-06T18:34:20.624Z,97729.50
2022-11-06T18:36:50.989Z,97737.77
2022-11-06T18:39:19.808Z,97739.92
2022-11-06T18:41:48.336Z,97741.53
2022-11-06T18:44:21.212Z,97744.70
2022-11-06T18:46:49.783Z,97745.42
2022-11-06T18:49:18.685Z,97746.66
2022-11-06T18:51:47.180Z,97748.77
2022-11-06T18:54:15.379Z,97748.45
2022-11-06T18:56:43.681Z,97750.74
2022-11-06T18:59:19.070Z,97754.77
2022-11-06T19:01:47.586Z,97754.11
2022-11-06T19:04:16.033Z,97754.15
2022-11-06T19:06:44.363Z,97757.54
2022-11-06T19:09:12.455Z,97757.58
2022-11-06T19:11:40.949Z,97764.45
2022-11-06T19:14:09.423Z,97769.21
2022-11-06T19:16:37.945Z,97771.18
2022-11-06T19:19:07.232Z,97771.23
2022-11-06T19:21:35.880Z,97775.45
2022-11-06T19:24:06.019Z,97778.61
2022-11-06T19:26:36.103Z,97781.26
2022-11-06T19:29:08.147Z,97782.52
2022-11-06T19:31:37.869Z,97784.27
2022-11-06T19:34:07.791Z,97784.64
2022-11-06T19:36:36.711Z,97786.59
2022-11-06T19:39:05.409Z,97789.08
2022-11-06T19:41:33.916Z,97792.63
2022-11-06T19:44:02.332Z,97798.23
2022-11-06T19:46:35.577Z,97799.50
2022-11-06T19:49:06.600Z,97805.66
2022-11-06T19:51:41.272Z,97805.04
2022-11-06T19:54:11.267Z,97807.91
2022-11-06T19:57:28.467Z,97809.38
2022-11-06T19:59:27.954Z,97811.88
2022-11-06T20:01:56.537Z,97816.43
2022-11-06T20:04:24.700Z,97818.21
2022-11-06T20:06:52.754Z,97818.40
2022-11-06T20:09:20.862Z,97823.11
2022-11-06T20:11:49.037Z,97824.87
2022-11-06T20:14:21.788Z,97828.88
2022-11-06T20:16:54.377Z,97834.27
2022-11-06T20:19:23.667Z,97841.77
2022-11-06T20:21:52.531Z,97845.09
2022-11-06T20:24:21.158Z,97848.23
2022-11-06T20:26:49.520Z,97845.09
2022-11-06T20:29:17.816Z,97846.85
2022-11-06T20:31:45.945Z,97851.41
2022-11-06T20:34:13.864Z,97852.30
2022-11-06T20:36:41.862Z,97855.64
2022-11-06T20:39:09.937Z,97853.59
2022-11-06T20:41:38.030Z,97856.77
2022-11-06T20:44:06.132Z,97858.38
2022-11-06T20:46:34.653Z,97860.71
2022-11-06T20:49:03.552Z,97859.02
2022-11-06T20:51:42.963Z,97866.88
2022-11-06T20:54:17.028Z,97865.18
2022-11-06T20:56:45.306Z,97866.77
2022-11-06T20:59:14.740Z,97867.12
2022-11-06T21:01:43.515Z,97867.30
2022-11-06T21:04:12.428Z,97868.89
2022-11-06T21:06:40.787Z,97870.27
2022-11-06T21:09:09.439Z,97872.89
2022-11-06T21:11:38.064Z,97876.89
2022-11-06T21:14:06.410Z,97879.48
2022-11-06T21:16:36.474Z,97875.31
2022-11-06T21:19:06.255Z,97881.21
2022-11-06T21:21:37.345Z,97881.92
2022-11-06T21:24:06.010Z,97883.66
2022-11-06T21:26:37.650Z,97881.57
2022-11-06T21:29:11.068Z,97880.89
2022-11-06T21:31:45.647Z,97882.82
2022-11-06T21:34:18.824Z,97884.05
2022-11-06T21:36:47.683Z,97887.90
2022-11-06T21:39:20.239Z,97886.70
2022-11-06T21:41:48.734Z,97889.17
2022-11-06T21:44:18.282Z,97888.33
2022-11-06T21:46:47.116Z,97886.95
2022-11-06T21:49:15.828Z,97883.30
2022-11-06T21:51:43.958Z,97887.65
2022-11-06T21:54:31.406Z,97891.33
2022-11-06T21:56:59.725Z,97892.20
2022-11-06T21:59:29.298Z,97892.72
2022-11-06T22:01:58.109Z,97895.15
2022-11-06T22:04:26.349Z,97892.36
2022-11-06T22:06:54.639Z,97898.79
2022-11-06T22:09:25.688Z,97897.06
2022-11-06T22:11:54.510Z,97892.02
2022-11-06T22:14:22.590Z,97890.63
2022-11-06T22:16:50.799Z,97890.64
2022-11-06T22:19:18.884Z,97894.11
2022-11-06T22:21:46.996Z,97896.70
2022-11-06T22:24:16.114Z,97897.05
2022-11-06T22:26:44.347Z,97898.10
2022-11-06T22:29:14.393Z,97894.63
2022-11-06T22:31:42.564Z,97898.45
2022-11-06T22:34:12.255Z,97898.30
2022-11-06T22:36:41.439Z,97892.58
2022-11-06T22:39:11.394Z,97893.27
2022-11-06T22:41:41.447Z,97894.33
2022-11-06T22:44:10.117Z,97893.30
2022-11-06T22:46:38.888Z,97900.75
2022-11-06T22:49:07.273Z,97901.45
2022-11-06T22:51:35.667Z,97903.54
2022-11-06T22:54:04.193Z,97904.41
2022-11-06T22:56:33.178Z,97904.58
2022-11-06T22:59:04.772Z,97904.23
2022-11-06T23:01:37.452Z,97907.52
2022-11-06T23:04:16.156Z,97909.61
2022-11-06T23:06:45.576Z,97909.42
2022-11-06T23:09:14.443Z,97909.59
2022-11-06T23:11:46.244Z,97910.11
2022-11-06T23:14:14.241Z,97912.36
2022-11-06T23:16:57.383Z,97909.77
2022-11-06T23:19:26.901Z,97911.14
2022-11-06T23:22:13.869Z,97910.96
2022-11-06T23:24:42.685Z,97908.54
2022-11-06T23:27:12.067Z,97905.77
2022-11-06T23:29:40.652Z,97905.41
2022-11-06T23:32:09.068Z,97909.95
2022-11-06T23:34:37.393Z,97911.16
2022-11-06T23:37:05.741Z,97912.73
2022-11-06T23:39:34.009Z,97913.42
2022-11-06T23:42:02.320Z,97917.95
2022-11-06T23:44:49.546Z,97917.08
2022-11-06T23:47:18.033Z,97919.16
2022-11-06T23:49:46.268Z,97922.81
2022-11-06T23:52:14.523Z,97923.50
2022-11-06T23:54:42.839Z,97929.40
2022-11-06T23:57:12.345Z,97928.19
2022-11-06T23:59:40.675Z,97928.52
